sensor_id;sensor_type;location;lat;lon;timestamp;temperature;humidity
6307;DHT22;3186;54.062;9.962;2023-02-22T00:00:19;8.30;99.90
6307;DHT22;3186;54.062;9.962;2023-02-22T00:02:49;8.30;99.90
6307;DHT22;3186;54.062;9.962;2023-02-22T00:05:16;8.30;99.90
6307;DHT22;3186;54.062;9.962;2023-02-22T00:07:46;8.30;99.90
6307;DHT22;3186;54.062;9.962;2023-02-22T00:10:13;8.30;99.90
6307;DHT22;3186;54.062;9.962;2023-02-22T00:12:42;8.30;99.90
6307;DHT22;3186;54.062;9.962;2023-02-22T00:15:08;8.20;99.90
6307;DHT22;3186;54.062;9.962;2023-02-22T00:17:35;8.30;99.90
6307;DHT22;3186;54.062;9.962;2023-02-22T00:20:01;8.20;99.90
6307;DHT22;3186;54.062;9.962;2023-02-22T00:22:30;8.20;99.90
6307;DHT22;3186;54.062;9.962;2023-02-22T00:24:56;8.20;99.90
6307;DHT22;3186;54.062;9.962;2023-02-22T00:27:22;8.20;99.90
6307;DHT22;3186;54.062;9.962;2023-02-22T00:29:48;8.20;99.90
6307;DHT22;3186;54.062;9.962;2023-02-22T00:32:14;8.20;99.90
6307;DHT22;3186;54.062;9.962;2023-02-22T00:34:40;8.20;99.90
6307;DHT22;3186;54.062;9.962;2023-02-22T00:37:06;8.20;99.90
6307;DHT22;3186;54.062;9.962;2023-02-22T00:39:32;8.30;99.90
6307;DHT22;3186;54.062;9.962;2023-02-22T00:41:58;8.20;99.90
6307;DHT22;3186;54.062;9.962;2023-02-22T00:44:24;8.30;99.90
6307;DHT22;3186;54.062;9.962;2023-02-22T00:46:49;8.30;99.90
6307;DHT22;3186;54.062;9.962;2023-02-22T00:49:16;8.20;99.90
6307;DHT22;3186;54.062;9.962;2023-02-22T00:51:41;8.20;99.90
6307;DHT22;3186;54.062;9.962;2023-02-22T00:54:07;8.20;99.90
6307;DHT22;3186;54.062;9.962;2023-02-22T00:56:35;8.10;99.90
6307;DHT22;3186;54.062;9.962;2023-02-22T00:59:02;8.10;99.90
6307;DHT22;3186;54.062;9.962;2023-02-22T01:01:30;8.20;99.90
6307;DHT22;3186;54.062;9.962;2023-02-22T01:03:56;8.20;99.90
6307;DHT22;3186;54.062;9.962;2023-02-22T01:06:21;8.20;99.90
6307;DHT22;3186;54.062;9.962;2023-02-22T01:08:48;8.20;99.90
6307;DHT22;3186;54.062;9.962;2023-02-22T01:11:15;8.20;99.90
6307;DHT22;3186;54.062;9.962;2023-02-22T01:13:41;8.20;99.90
6307;DHT22;3186;54.062;9.962;2023-02-22T01:16:10;8.20;99.90
6307;DHT22;3186;54.062;9.962;2023-02-22T01:18:36;8.20;99.90
6307;DHT22;3186;54.062;9.962;2023-02-22T01:21:03;8.20;99.90
6307;DHT22;3186;54.062;9.962;2023-02-22T01:23:29;8.20;99.90
6307;DHT22;3186;54.062;9.962;2023-02-22T01:25:57;8.20;99.90
6307;DHT22;3186;54.062;9.962;2023-02-22T01:28:23;8.20;99.90
6307;DHT22;3186;54.062;9.962;2023-02-22T01:30:49;8.20;99.90
6307;DHT22;3186;54.062;9.962;2023-02-22T01:33:15;8.20;99.90
6307;DHT22;3186;54.062;9.962;2023-02-22T01:35:43;8.20;99.90
6307;DHT22;3186;54.062;9.962;2023-02-22T01:38:10;8.20;99.90
6307;DHT22;3186;54.062;9.962;2023-02-22T01:40:40;8.10;99.90
6307;DHT22;3186;54.062;9.962;2023-02-22T01:51:17;8.10;99.90
6307;DHT22;3186;54.062;9.962;2023-02-22T01:56:36;8.10;99.90
6307;DHT22;3186;54.062;9.962;2023-02-22T01:59:07;8.20;99.90
6307;DHT22;3186;54.062;9.962;2023-02-22T02:01:35;8.20;99.90
6307;DHT22;3186;54.062;9.962;2023-02-22T02:04:06;8.10;99.90
6307;DHT22;3186;54.062;9.962;2023-02-22T02:06:35;8.10;99.90
6307;DHT22;3186;54.062;9.962;2023-02-22T02:09:24;8.20;99.90
6307;DHT22;3186;54.062;9.962;2023-02-22T02:11:58;8.10;99.90
6307;DHT22;3186;54.062;9.962;2023-02-22T02:14:30;8.10;99.90
6307;DHT22;3186;54.062;9.962;2023-02-22T02:16:56;8.10;99.90
6307;DHT22;3186;54.062;9.962;2023-02-22T02:33:46;8.10;99.90
6307;DHT22;3186;54.062;9.962;2023-02-22T02:39:08;8.00;99.90
6307;DHT22;3186;54.062;9.962;2023-02-22T02:41:55;8.00;99.90
6307;DHT22;3186;54.062;9.962;2023-02-22T02:44:40;8.00;99.90
6307;DHT22;3186;54.062;9.962;2023-02-22T02:47:16;8.00;99.90
6307;DHT22;3186;54.062;9.962;2023-02-22T02:50:07;7.90;99.90
6307;DHT22;3186;54.062;9.962;2023-02-22T02:52:36;7.90;99.90
6307;DHT22;3186;54.062;9.962;2023-02-22T02:55:04;7.90;99.90
6307;DHT22;3186;54.062;9.962;2023-02-22T02:57:31;7.90;99.90
6307;DHT22;3186;54.062;9.962;2023-02-22T02:59:58;7.90;99.90
6307;DHT22;3186;54.062;9.962;2023-02-22T03:08:15;7.80;99.90
6307;DHT22;3186;54.062;9.962;2023-02-22T03:10:48;7.90;99.90
6307;DHT22;3186;54.062;9.962;2023-02-22T03:18:49;7.80;99.90
6307;DHT22;3186;54.062;9.962;2023-02-22T03:21:23;7.80;99.90
6307;DHT22;3186;54.062;9.962;2023-02-22T03:26:34;7.90;99.90
6307;DHT22;3186;54.062;9.962;2023-02-22T03:29:03;7.80;99.90
6307;DHT22;3186;54.062;9.962;2023-02-22T03:31:37;7.80;99.90
6307;DHT22;3186;54.062;9.962;2023-02-22T03:34:17;7.80;99.90
6307;DHT22;3186;54.062;9.962;2023-02-22T03:36:57;7.80;99.90
6307;DHT22;3186;54.062;9.962;2023-02-22T03:39:25;7.80;99.90
6307;DHT22;3186;54.062;9.962;2023-02-22T03:42:00;7.80;99.90
6307;DHT22;3186;54.062;9.962;2023-02-22T03:44:32;7.80;99.90
6307;DHT22;3186;54.062;9.962;2023-02-22T03:47:07;7.80;99.90
6307;DHT22;3186;54.062;9.962;2023-02-22T03:49:44;7.80;99.90
6307;DHT22;3186;54.062;9.962;2023-02-22T03:52:12;7.80;99.90
6307;DHT22;3186;54.062;9.962;2023-02-22T03:54:39;7.80;99.90
6307;DHT22;3186;54.062;9.962;2023-02-22T03:57:21;7.80;99.90
6307;DHT22;3186;54.062;9.962;2023-02-22T03:59:53;7.80;99.90
6307;DHT22;3186;54.062;9.962;2023-02-22T04:02:19;7.70;99.90
6307;DHT22;3186;54.062;9.962;2023-02-22T04:04:46;7.70;99.90
6307;DHT22;3186;54.062;9.962;2023-02-22T04:07:12;7.70;99.90
6307;DHT22;3186;54.062;9.962;2023-02-22T04:09:39;7.80;99.90
6307;DHT22;3186;54.062;9.962;2023-02-22T04:12:05;7.70;99.90
6307;DHT22;3186;54.062;9.962;2023-02-22T04:14:43;7.80;99.90
6307;DHT22;3186;54.062;9.962;2023-02-22T04:17:09;7.70;99.90
6307;DHT22;3186;54.062;9.962;2023-02-22T04:19:35;7.70;99.90
6307;DHT22;3186;54.062;9.962;2023-02-22T04:22:01;7.70;99.90
6307;DHT22;3186;54.062;9.962;2023-02-22T04:24:32;7.70;99.90
6307;DHT22;3186;54.062;9.962;2023-02-22T04:26:58;7.70;99.90
6307;DHT22;3186;54.062;9.962;2023-02-22T04:29:24;7.70;99.90
6307;DHT22;3186;54.062;9.962;2023-02-22T04:31:50;7.70;99.90
6307;DHT22;3186;54.062;9.962;2023-02-22T04:34:16;7.70;99.90
6307;DHT22;3186;54.062;9.962;2023-02-22T04:36:42;7.70;99.90
6307;DHT22;3186;54.062;9.962;2023-02-22T04:39:09;7.70;99.90
6307;DHT22;3186;54.062;9.962;2023-02-22T04:41:35;7.70;99.90
6307;DHT22;3186;54.062;9.962;2023-02-22T04:44:01;7.70;99.90
6307;DHT22;3186;54.062;9.962;2023-02-22T04:46:28;7.70;99.90
6307;DHT22;3186;54.062;9.962;2023-02-22T04:48:54;7.70;99.90
6307;DHT22;3186;54.062;9.962;2023-02-22T04:51:23;7.70;99.90
6307;DHT22;3186;54.062;9.962;2023-02-22T04:53:55;7.70;99.90
6307;DHT22;3186;54.062;9.962;2023-02-22T04:56:23;7.70;99.90
6307;DHT22;3186;54.062;9.962;2023-02-22T04:58:49;7.70;99.90
6307;DHT22;3186;54.062;9.962;2023-02-22T05:01:15;7.70;99.90
6307;DHT22;3186;54.062;9.962;2023-02-22T05:03:42;7.70;99.90
6307;DHT22;3186;54.062;9.962;2023-02-22T05:06:08;7.70;99.90
6307;DHT22;3186;54.062;9.962;2023-02-22T05:08:34;7.70;99.90
6307;DHT22;3186;54.062;9.962;2023-02-22T05:11:00;7.70;99.90
6307;DHT22;3186;54.062;9.962;2023-02-22T05:13:26;7.70;99.90
6307;DHT22;3186;54.062;9.962;2023-02-22T05:15:51;7.70;99.90
6307;DHT22;3186;54.062;9.962;2023-02-22T05:18:17;7.70;99.90
6307;DHT22;3186;54.062;9.962;2023-02-22T05:20:43;7.70;99.90
6307;DHT22;3186;54.062;9.962;2023-02-22T05:23:09;7.70;99.90
6307;DHT22;3186;54.062;9.962;2023-02-22T05:25:35;7.70;99.90
6307;DHT22;3186;54.062;9.962;2023-02-22T05:28:09;7.70;99.90
6307;DHT22;3186;54.062;9.962;2023-02-22T05:30:36;7.70;99.90
6307;DHT22;3186;54.062;9.962;2023-02-22T05:33:04;7.70;99.90
6307;DHT22;3186;54.062;9.962;2023-02-22T05:35:30;7.70;99.90
6307;DHT22;3186;54.062;9.962;2023-02-22T05:37:57;7.70;99.90
6307;DHT22;3186;54.062;9.962;2023-02-22T05:40:26;7.70;99.90
6307;DHT22;3186;54.062;9.962;2023-02-22T05:42:52;7.70;99.90
6307;DHT22;3186;54.062;9.962;2023-02-22T05:45:20;7.70;99.90
6307;DHT22;3186;54.062;9.962;2023-02-22T05:47:47;7.60;99.90
6307;DHT22;3186;54.062;9.962;2023-02-22T05:50:13;7.70;99.90
6307;DHT22;3186;54.062;9.962;2023-02-22T05:52:39;7.70;99.90
6307;DHT22;3186;54.062;9.962;2023-02-22T05:55:07;7.70;99.90
6307;DHT22;3186;54.062;9.962;2023-02-22T05:57:33;7.70;99.90
6307;DHT22;3186;54.062;9.962;2023-02-22T05:59:59;7.70;99.90
6307;DHT22;3186;54.062;9.962;2023-02-22T06:02:25;7.70;99.90
6307;DHT22;3186;54.062;9.962;2023-02-22T06:04:51;7.70;99.90
6307;DHT22;3186;54.062;9.962;2023-02-22T06:07:17;7.70;99.90
6307;DHT22;3186;54.062;9.962;2023-02-22T06:09:42;7.70;99.90
6307;DHT22;3186;54.062;9.962;2023-02-22T06:12:09;7.70;99.90
6307;DHT22;3186;54.062;9.962;2023-02-22T06:14:35;7.70;99.90
6307;DHT22;3186;54.062;9.962;2023-02-22T06:17:01;7.70;99.90
6307;DHT22;3186;54.062;9.962;2023-02-22T06:19:27;7.70;99.90
6307;DHT22;3186;54.062;9.962;2023-02-22T06:21:55;7.70;99.90
6307;DHT22;3186;54.062;9.962;2023-02-22T06:24:21;7.70;99.90
6307;DHT22;3186;54.062;9.962;2023-02-22T06:26:55;7.70;99.90
6307;DHT22;3186;54.062;9.962;2023-02-22T06:29:22;7.70;99.90
6307;DHT22;3186;54.062;9.962;2023-02-22T06:31:48;7.70;99.90
6307;DHT22;3186;54.062;9.962;2023-02-22T06:34:15;7.70;99.90
6307;DHT22;3186;54.062;9.962;2023-02-22T06:36:40;7.60;99.90
6307;DHT22;3186;54.062;9.962;2023-02-22T06:39:07;7.70;99.90
6307;DHT22;3186;54.062;9.962;2023-02-22T06:41:37;7.70;99.90
6307;DHT22;3186;54.062;9.962;2023-02-22T06:44:03;7.70;99.90
6307;DHT22;3186;54.062;9.962;2023-02-22T06:46:30;7.60;99.90
6307;DHT22;3186;54.062;9.962;2023-02-22T06:48:55;7.70;99.90
6307;DHT22;3186;54.062;9.962;2023-02-22T06:51:25;7.70;99.90
6307;DHT22;3186;54.062;9.962;2023-02-22T06:53:51;7.70;99.90
6307;DHT22;3186;54.062;9.962;2023-02-22T06:56:17;7.70;99.90
6307;DHT22;3186;54.062;9.962;2023-02-22T06:58:42;7.70;99.90
6307;DHT22;3186;54.062;9.962;2023-02-22T07:01:08;7.70;99.90
6307;DHT22;3186;54.062;9.962;2023-02-22T07:03:34;7.70;99.90
6307;DHT22;3186;54.062;9.962;2023-02-22T07:06:01;7.70;99.90
6307;DHT22;3186;54.062;9.962;2023-02-22T07:08:28;7.70;99.90
6307;DHT22;3186;54.062;9.962;2023-02-22T07:10:53;7.70;99.90
6307;DHT22;3186;54.062;9.962;2023-02-22T07:13:19;7.70;99.90
6307;DHT22;3186;54.062;9.962;2023-02-22T07:15:45;7.70;99.90
6307;DHT22;3186;54.062;9.962;2023-02-22T07:18:11;7.70;99.90
6307;DHT22;3186;54.062;9.962;2023-02-22T07:20:38;7.80;99.90
6307;DHT22;3186;54.062;9.962;2023-02-22T07:23:05;7.70;99.90
6307;DHT22;3186;54.062;9.962;2023-02-22T07:25:31;7.70;99.90
6307;DHT22;3186;54.062;9.962;2023-02-22T07:27:57;7.70;99.90
6307;DHT22;3186;54.062;9.962;2023-02-22T07:30:31;7.70;99.90
6307;DHT22;3186;54.062;9.962;2023-02-22T07:33:00;7.70;99.90
6307;DHT22;3186;54.062;9.962;2023-02-22T07:35:27;7.70;99.90
6307;DHT22;3186;54.062;9.962;2023-02-22T07:37:54;7.70;99.90
6307;DHT22;3186;54.062;9.962;2023-02-22T07:40:21;7.70;99.90
6307;DHT22;3186;54.062;9.962;2023-02-22T07:42:58;7.70;99.90
6307;DHT22;3186;54.062;9.962;2023-02-22T07:45:27;7.70;99.90
6307;DHT22;3186;54.062;9.962;2023-02-22T07:47:53;7.70;99.90
6307;DHT22;3186;54.062;9.962;2023-02-22T07:50:20;7.70;99.90
6307;DHT22;3186;54.062;9.962;2023-02-22T07:52:47;7.70;99.90
6307;DHT22;3186;54.062;9.962;2023-02-22T07:55:18;7.60;99.90
6307;DHT22;3186;54.062;9.962;2023-02-22T07:57:46;7.70;99.90
6307;DHT22;3186;54.062;9.962;2023-02-22T08:00:15;7.70;99.90
6307;DHT22;3186;54.062;9.962;2023-02-22T08:02:41;7.80;99.90
6307;DHT22;3186;54.062;9.962;2023-02-22T08:05:09;7.70;99.90
6307;DHT22;3186;54.062;9.962;2023-02-22T08:07:38;7.70;99.90
6307;DHT22;3186;54.062;9.962;2023-02-22T08:10:05;7.80;99.90
6307;DHT22;3186;54.062;9.962;2023-02-22T08:12:36;7.80;99.90
6307;DHT22;3186;54.062;9.962;2023-02-22T08:15:04;7.80;99.90
6307;DHT22;3186;54.062;9.962;2023-02-22T08:17:30;7.80;99.90
6307;DHT22;3186;54.062;9.962;2023-02-22T08:19:56;7.80;99.90
6307;DHT22;3186;54.062;9.962;2023-02-22T08:22:22;7.80;99.90
6307;DHT22;3186;54.062;9.962;2023-02-22T08:24:48;7.80;99.90
6307;DHT22;3186;54.062;9.962;2023-02-22T08:27:25;7.80;99.90
6307;DHT22;3186;54.062;9.962;2023-02-22T08:29:52;7.80;99.90
6307;DHT22;3186;54.062;9.962;2023-02-22T08:32:18;7.80;99.90
6307;DHT22;3186;54.062;9.962;2023-02-22T08:34:44;7.90;99.90
6307;DHT22;3186;54.062;9.962;2023-02-22T08:37:10;7.90;99.90
6307;DHT22;3186;54.062;9.962;2023-02-22T08:39:36;7.90;99.90
6307;DHT22;3186;54.062;9.962;2023-02-22T08:42:02;7.90;99.90
6307;DHT22;3186;54.062;9.962;2023-02-22T08:44:28;7.90;99.90
6307;DHT22;3186;54.062;9.962;2023-02-22T08:46:54;8.00;99.90
6307;DHT22;3186;54.062;9.962;2023-02-22T08:49:20;8.00;99.90
6307;DHT22;3186;54.062;9.962;2023-02-22T08:51:46;8.00;99.90
6307;DHT22;3186;54.062;9.962;2023-02-22T08:54:12;8.00;99.90
6307;DHT22;3186;54.062;9.962;2023-02-22T08:56:38;8.00;99.90
6307;DHT22;3186;54.062;9.962;2023-02-22T08:59:04;8.20;99.90
6307;DHT22;3186;54.062;9.962;2023-02-22T09:01:30;8.10;99.90
6307;DHT22;3186;54.062;9.962;2023-02-22T09:03:57;8.10;99.90
6307;DHT22;3186;54.062;9.962;2023-02-22T09:06:23;8.20;99.90
6307;DHT22;3186;54.062;9.962;2023-02-22T09:08:49;8.20;99.90
6307;DHT22;3186;54.062;9.962;2023-02-22T09:11:15;8.30;99.90
6307;DHT22;3186;54.062;9.962;2023-02-22T09:13:41;8.20;99.90
6307;DHT22;3186;54.062;9.962;2023-02-22T09:16:06;8.30;99.90
6307;DHT22;3186;54.062;9.962;2023-02-22T09:18:32;8.30;99.90
6307;DHT22;3186;54.062;9.962;2023-02-22T09:20:58;8.50;99.90
6307;DHT22;3186;54.062;9.962;2023-02-22T09:23:24;8.50;99.90
6307;DHT22;3186;54.062;9.962;2023-02-22T09:25:50;8.60;99.90
6307;DHT22;3186;54.062;9.962;2023-02-22T09:28:16;8.70;99.90
6307;DHT22;3186;54.062;9.962;2023-02-22T09:30:43;8.60;99.90
6307;DHT22;3186;54.062;9.962;2023-02-22T09:33:14;8.70;99.90
6307;DHT22;3186;54.062;9.962;2023-02-22T09:35:42;8.80;99.90
6307;DHT22;3186;54.062;9.962;2023-02-22T09:38:19;8.70;99.90
6307;DHT22;3186;54.062;9.962;2023-02-22T09:40:53;8.90;99.90
6307;DHT22;3186;54.062;9.962;2023-02-22T09:43:36;9.10;99.90
6307;DHT22;3186;54.062;9.962;2023-02-22T09:49:00;9.30;99.90
6307;DHT22;3186;54.062;9.962;2023-02-22T09:51:42;9.30;99.90
6307;DHT22;3186;54.062;9.962;2023-02-22T09:57:02;9.40;99.90
6307;DHT22;3186;54.062;9.962;2023-02-22T09:59:33;9.50;99.90
6307;DHT22;3186;54.062;9.962;2023-02-22T10:02:12;9.50;99.90
6307;DHT22;3186;54.062;9.962;2023-02-22T10:05:07;9.50;99.90
6307;DHT22;3186;54.062;9.962;2023-02-22T10:07:39;9.50;99.90
6307;DHT22;3186;54.062;9.962;2023-02-22T10:10:17;9.60;99.90
6307;DHT22;3186;54.062;9.962;2023-02-22T10:21:19;9.80;99.90
6307;DHT22;3186;54.062;9.962;2023-02-22T10:24:12;10.00;99.90
6307;DHT22;3186;54.062;9.962;2023-02-22T10:26:43;10.10;99.90
6307;DHT22;3186;54.062;9.962;2023-02-22T10:29:48;10.10;99.90
6307;DHT22;3186;54.062;9.962;2023-02-22T10:32:23;10.10;99.90
6307;DHT22;3186;54.062;9.962;2023-02-22T10:34:51;10.20;99.90
6307;DHT22;3186;54.062;9.962;2023-02-22T10:39:48;10.20;99.90
6307;DHT22;3186;54.062;9.962;2023-02-22T10:42:14;10.20;99.90
6307;DHT22;3186;54.062;9.962;2023-02-22T10:44:40;10.20;99.90
6307;DHT22;3186;54.062;9.962;2023-02-22T10:47:12;10.20;99.90
6307;DHT22;3186;54.062;9.962;2023-02-22T10:50:05;10.30;99.90
6307;DHT22;3186;54.062;9.962;2023-02-22T10:52:33;10.50;99.90
6307;DHT22;3186;54.062;9.962;2023-02-22T10:55:00;10.60;99.90
6307;DHT22;3186;54.062;9.962;2023-02-22T10:57:32;10.60;99.90
6307;DHT22;3186;54.062;9.962;2023-02-22T11:00:38;10.60;99.90
6307;DHT22;3186;54.062;9.962;2023-02-22T11:03:19;10.70;99.90
6307;DHT22;3186;54.062;9.962;2023-02-22T11:05:46;10.70;99.90
6307;DHT22;3186;54.062;9.962;2023-02-22T11:08:28;10.80;99.90
6307;DHT22;3186;54.062;9.962;2023-02-22T11:10:59;10.70;99.90
6307;DHT22;3186;54.062;9.962;2023-02-22T11:13:36;10.60;99.90
6307;DHT22;3186;54.062;9.962;2023-02-22T11:16:32;10.60;99.90
6307;DHT22;3186;54.062;9.962;2023-02-22T11:19:01;10.80;99.90
6307;DHT22;3186;54.062;9.962;2023-02-22T11:21:29;10.70;99.90
6307;DHT22;3186;54.062;9.962;2023-02-22T11:24:05;10.70;99.90
6307;DHT22;3186;54.062;9.962;2023-02-22T11:26:39;10.90;99.90
6307;DHT22;3186;54.062;9.962;2023-02-22T11:29:18;10.80;99.90
6307;DHT22;3186;54.062;9.962;2023-02-22T11:31:45;10.80;99.90
6307;DHT22;3186;54.062;9.962;2023-02-22T11:34:29;10.80;99.90
6307;DHT22;3186;54.062;9.962;2023-02-22T11:37:13;10.90;99.90
6307;DHT22;3186;54.062;9.962;2023-02-22T11:39:40;10.90;99.90
6307;DHT22;3186;54.062;9.962;2023-02-22T11:42:27;10.90;99.90
6307;DHT22;3186;54.062;9.962;2023-02-22T11:45:22;11.10;99.90
6307;DHT22;3186;54.062;9.962;2023-02-22T11:47:58;13.00;99.90
6307;DHT22;3186;54.062;9.962;2023-02-22T11:50:30;11.10;99.90
6307;DHT22;3186;54.062;9.962;2023-02-22T11:55:58;11.30;99.90
6307;DHT22;3186;54.062;9.962;2023-02-22T11:58:49;11.20;99.90
6307;DHT22;3186;54.062;9.962;2023-02-22T12:10:00;11.20;99.90
6307;DHT22;3186;54.062;9.962;2023-02-22T12:12:59;11.20;99.90
6307;DHT22;3186;54.062;9.962;2023-02-22T12:15:10;11.20;99.90
6307;DHT22;3186;54.062;9.962;2023-02-22T12:18:05;11.20;99.90
6307;DHT22;3186;54.062;9.962;2023-02-22T12:20:38;11.20;99.90
6307;DHT22;3186;54.062;9.962;2023-02-22T12:25:43;11.30;99.90
6307;DHT22;3186;54.062;9.962;2023-02-22T12:28:18;11.30;99.90
6307;DHT22;3186;54.062;9.962;2023-02-22T12:30:52;11.40;99.90
6307;DHT22;3186;54.062;9.962;2023-02-22T12:33:25;11.40;99.90
6307;DHT22;3186;54.062;9.962;2023-02-22T12:35:58;11.50;99.90
6307;DHT22;3186;54.062;9.962;2023-02-22T12:38:41;11.40;99.90
6307;DHT22;3186;54.062;9.962;2023-02-22T12:41:19;11.40;99.90
6307;DHT22;3186;54.062;9.962;2023-02-22T12:43:56;11.40;99.90
6307;DHT22;3186;54.062;9.962;2023-02-22T12:46:40;11.40;99.90
6307;DHT22;3186;54.062;9.962;2023-02-22T13:00:03;11.30;99.90
6307;DHT22;3186;54.062;9.962;2023-02-22T13:02:42;11.40;99.90
6307;DHT22;3186;54.062;9.962;2023-02-22T13:05:14;11.40;99.90
6307;DHT22;3186;54.062;9.962;2023-02-22T13:13:20;11.30;99.90
6307;DHT22;3186;54.062;9.962;2023-02-22T13:21:14;11.40;99.90
6307;DHT22;3186;54.062;9.962;2023-02-22T13:26:40;11.30;99.90
6307;DHT22;3186;54.062;9.962;2023-02-22T13:31:53;11.40;99.90
6307;DHT22;3186;54.062;9.962;2023-02-22T13:35:10;11.20;99.90
6307;DHT22;3186;54.062;9.962;2023-02-22T13:43:30;11.30;99.90
6307;DHT22;3186;54.062;9.962;2023-02-22T13:52:08;11.40;99.90
6307;DHT22;3186;54.062;9.962;2023-02-22T13:57:23;11.40;99.90
6307;DHT22;3186;54.062;9.962;2023-02-22T14:10:54;11.40;99.90
6307;DHT22;3186;54.062;9.962;2023-02-22T14:13:22;11.40;99.90
6307;DHT22;3186;54.062;9.962;2023-02-22T14:18:44;11.30;99.90
6307;DHT22;3186;54.062;9.962;2023-02-22T14:21:15;11.40;99.90
6307;DHT22;3186;54.062;9.962;2023-02-22T14:23:45;11.40;99.90
6307;DHT22;3186;54.062;9.962;2023-02-22T14:28:53;11.40;99.90
6307;DHT22;3186;54.062;9.962;2023-02-22T14:31:28;11.40;99.90
6307;DHT22;3186;54.062;9.962;2023-02-22T14:34:01;11.50;99.90
6307;DHT22;3186;54.062;9.962;2023-02-22T14:39:11;11.60;99.90
6307;DHT22;3186;54.062;9.962;2023-02-22T14:41:41;11.50;99.90
6307;DHT22;3186;54.062;9.962;2023-02-22T14:44:08;11.50;99.90
6307;DHT22;3186;54.062;9.962;2023-02-22T14:46:39;11.50;99.90
6307;DHT22;3186;54.062;9.962;2023-02-22T14:49:10;11.50;99.90
6307;DHT22;3186;54.062;9.962;2023-02-22T14:51:49;11.50;99.90
6307;DHT22;3186;54.062;9.962;2023-02-22T14:54:38;11.50;99.90
6307;DHT22;3186;54.062;9.962;2023-02-22T14:57:22;11.40;99.90
6307;DHT22;3186;54.062;9.962;2023-02-22T14:59:59;11.40;99.90
6307;DHT22;3186;54.062;9.962;2023-02-22T15:02:26;11.40;99.90
6307;DHT22;3186;54.062;9.962;2023-02-22T15:04:55;11.30;99.90
6307;DHT22;3186;54.062;9.962;2023-02-22T15:07:28;11.40;99.90
6307;DHT22;3186;54.062;9.962;2023-02-22T15:12:57;11.40;99.90
6307;DHT22;3186;54.062;9.962;2023-02-22T15:15:35;11.40;99.90
6307;DHT22;3186;54.062;9.962;2023-02-22T15:18:01;11.50;99.90
6307;DHT22;3186;54.062;9.962;2023-02-22T15:20:33;11.50;99.90
6307;DHT22;3186;54.062;9.962;2023-02-22T15:23:00;11.40;99.90
6307;DHT22;3186;54.062;9.962;2023-02-22T15:25:28;11.40;99.90
6307;DHT22;3186;54.062;9.962;2023-02-22T15:28:01;11.50;99.90
6307;DHT22;3186;54.062;9.962;2023-02-22T15:30:30;11.50;99.90
6307;DHT22;3186;54.062;9.962;2023-02-22T15:35:37;11.50;99.90
6307;DHT22;3186;54.062;9.962;2023-02-22T15:38:27;11.40;99.90
6307;DHT22;3186;54.062;9.962;2023-02-22T15:41:02;11.40;99.90
6307;DHT22;3186;54.062;9.962;2023-02-22T15:43:28;11.30;99.90
6307;DHT22;3186;54.062;9.962;2023-02-22T15:45:57;11.30;99.90
6307;DHT22;3186;54.062;9.962;2023-02-22T15:48:24;11.30;99.90
6307;DHT22;3186;54.062;9.962;2023-02-22T15:53:41;11.20;99.90
6307;DHT22;3186;54.062;9.962;2023-02-22T15:56:14;11.20;99.90
6307;DHT22;3186;54.062;9.962;2023-02-22T15:58:41;11.20;99.90
6307;DHT22;3186;54.062;9.962;2023-02-22T16:01:16;11.20;99.90
6307;DHT22;3186;54.062;9.962;2023-02-22T16:03:47;11.20;99.90
6307;DHT22;3186;54.062;9.962;2023-02-22T16:06:50;11.20;99.90
6307;DHT22;3186;54.062;9.962;2023-02-22T16:09:21;11.20;99.90
6307;DHT22;3186;54.062;9.962;2023-02-22T16:12:09;11.20;99.90
6307;DHT22;3186;54.062;9.962;2023-02-22T16:14:47;11.10;99.90
6307;DHT22;3186;54.062;9.962;2023-02-22T16:17:38;11.10;99.90
6307;DHT22;3186;54.062;9.962;2023-02-22T16:22:40;11.10;99.90
6307;DHT22;3186;54.062;9.962;2023-02-22T16:27:47;11.10;99.90
6307;DHT22;3186;54.062;9.962;2023-02-22T16:32:47;11.10;99.90
6307;DHT22;3186;54.062;9.962;2023-02-22T16:35:13;11.00;99.90
6307;DHT22;3186;54.062;9.962;2023-02-22T16:37:48;10.90;99.90
6307;DHT22;3186;54.062;9.962;2023-02-22T16:40:25;10.90;99.90
6307;DHT22;3186;54.062;9.962;2023-02-22T16:42:51;10.90;99.90
6307;DHT22;3186;54.062;9.962;2023-02-22T16:45:18;10.90;99.90
6307;DHT22;3186;54.062;9.962;2023-02-22T16:47:45;10.80;99.90
6307;DHT22;3186;54.062;9.962;2023-02-22T16:50:11;10.70;99.90
6307;DHT22;3186;54.062;9.962;2023-02-22T16:52:40;10.80;99.90
6307;DHT22;3186;54.062;9.962;2023-02-22T16:55:12;10.80;99.90
6307;DHT22;3186;54.062;9.962;2023-02-22T16:57:39;10.80;99.90
6307;DHT22;3186;54.062;9.962;2023-02-22T17:00:09;10.80;99.90
6307;DHT22;3186;54.062;9.962;2023-02-22T17:02:38;10.80;99.90
6307;DHT22;3186;54.062;9.962;2023-02-22T17:05:05;10.80;99.90
6307;DHT22;3186;54.062;9.962;2023-02-22T17:07:32;10.80;99.90
6307;DHT22;3186;54.062;9.962;2023-02-22T17:09:58;10.70;99.90
6307;DHT22;3186;54.062;9.962;2023-02-22T17:12:25;10.60;99.90
6307;DHT22;3186;54.062;9.962;2023-02-22T17:14:53;10.70;99.90
6307;DHT22;3186;54.062;9.962;2023-02-22T17:17:19;10.70;99.90
6307;DHT22;3186;54.062;9.962;2023-02-22T17:19:47;10.50;99.90
6307;DHT22;3186;54.062;9.962;2023-02-22T17:22:18;10.60;99.90
6307;DHT22;3186;54.062;9.962;2023-02-22T17:24:44;10.60;99.90
6307;DHT22;3186;54.062;9.962;2023-02-22T17:27:10;10.50;99.90
6307;DHT22;3186;54.062;9.962;2023-02-22T17:29:36;10.50;99.90
6307;DHT22;3186;54.062;9.962;2023-02-22T17:32:02;10.50;99.90
6307;DHT22;3186;54.062;9.962;2023-02-22T17:34:28;10.50;99.90
6307;DHT22;3186;54.062;9.962;2023-02-22T17:36:54;10.40;99.90
6307;DHT22;3186;54.062;9.962;2023-02-22T17:39:19;10.40;99.90
6307;DHT22;3186;54.062;9.962;2023-02-22T17:41:45;10.40;99.90
6307;DHT22;3186;54.062;9.962;2023-02-22T17:44:12;10.40;99.90
6307;DHT22;3186;54.062;9.962;2023-02-22T17:46:38;10.40;99.90
6307;DHT22;3186;54.062;9.962;2023-02-22T17:49:07;10.40;99.90
6307;DHT22;3186;54.062;9.962;2023-02-22T17:51:33;10.40;99.90
6307;DHT22;3186;54.062;9.962;2023-02-22T17:53:59;10.30;99.90
6307;DHT22;3186;54.062;9.962;2023-02-22T17:56:24;10.30;99.90
6307;DHT22;3186;54.062;9.962;2023-02-22T17:58:53;10.30;99.90
6307;DHT22;3186;54.062;9.962;2023-02-22T18:01:26;10.30;99.90
6307;DHT22;3186;54.062;9.962;2023-02-22T18:03:54;10.30;99.90
6307;DHT22;3186;54.062;9.962;2023-02-22T18:06:22;10.30;99.90
6307;DHT22;3186;54.062;9.962;2023-02-22T18:08:48;10.20;99.90
6307;DHT22;3186;54.062;9.962;2023-02-22T18:11:18;10.20;99.90
6307;DHT22;3186;54.062;9.962;2023-02-22T18:13:45;10.20;99.90
6307;DHT22;3186;54.062;9.962;2023-02-22T18:16:12;10.20;99.90
6307;DHT22;3186;54.062;9.962;2023-02-22T18:18:38;10.20;99.90
6307;DHT22;3186;54.062;9.962;2023-02-22T18:21:04;10.20;99.90
6307;DHT22;3186;54.062;9.962;2023-02-22T18:23:31;10.20;99.90
6307;DHT22;3186;54.062;9.962;2023-02-22T18:25:58;10.10;99.90
6307;DHT22;3186;54.062;9.962;2023-02-22T18:28:25;10.10;99.90
6307;DHT22;3186;54.062;9.962;2023-02-22T18:30:51;10.00;99.90
6307;DHT22;3186;54.062;9.962;2023-02-22T18:33:18;10.00;99.90
6307;DHT22;3186;54.062;9.962;2023-02-22T18:35:47;10.00;99.90
6307;DHT22;3186;54.062;9.962;2023-02-22T18:38:21;10.00;99.90
6307;DHT22;3186;54.062;9.962;2023-02-22T18:41:03;10.00;99.90
6307;DHT22;3186;54.062;9.962;2023-02-22T18:43:30;10.00;99.90
6307;DHT22;3186;54.062;9.962;2023-02-22T18:46:15;10.00;99.90
6307;DHT22;3186;54.062;9.962;2023-02-22T18:48:43;9.90;99.90
6307;DHT22;3186;54.062;9.962;2023-02-22T18:51:12;9.90;99.90
6307;DHT22;3186;54.062;9.962;2023-02-22T18:53:39;10.00;99.90
6307;DHT22;3186;54.062;9.962;2023-02-22T18:56:10;9.90;99.90
6307;DHT22;3186;54.062;9.962;2023-02-22T18:58:37;9.80;99.90
6307;DHT22;3186;54.062;9.962;2023-02-22T19:01:05;9.90;99.90